sensor_id;sensor_type;location;lat;lon;timestamp;P1;durP1;ratioP1;P2;durP2;ratioP2
64923;SDS011;51436;44.692;39.214;2022-11-20T00:00:14;7.40;;;3.83;;
64923;SDS011;51436;44.692;39.214;2022-11-20T00:02:41;10.20;;;4.20;;
64923;SDS011;51436;44.692;39.214;2022-11-20T00:05:08;7.60;;;3.60;;
64923;SDS011;51436;44.692;39.214;2022-11-20T00:07:34;10.57;;;3.58;;
64923;SDS011;51436;44.692;39.214;2022-11-20T00:10:01;9.57;;;3.78;;
64923;SDS011;51436;44.692;39.214;2022-11-20T00:12:27;8.90;;;3.63;;
64923;SDS011;51436;44.692;39.214;2022-11-20T00:14:54;7.72;;;3.55;;
64923;SDS011;51436;44.692;39.214;2022-11-20T00:17:20;6.18;;;3.88;;
64923;SDS011;51436;44.692;39.214;2022-11-20T00:19:46;7.63;;;3.83;;
64923;SDS011;51436;44.692;39.214;2022-11-20T00:22:13;6.35;;;3.50;;
64923;SDS011;51436;44.692;39.214;2022-11-20T00:24:40;8.05;;;4.07;;
64923;SDS011;51436;44.692;39.214;2022-11-20T00:27:06;7.43;;;4.15;;
64923;SDS011;51436;44.692;39.214;2022-11-20T00:29:32;9.27;;;3.70;;
64923;SDS011;51436;44.692;39.214;2022-11-20T00:31:59;6.38;;;3.40;;
64923;SDS011;51436;44.692;39.214;2022-11-20T00:34:25;8.38;;;3.38;;
64923;SDS011;51436;44.692;39.214;2022-11-20T00:36:51;10.93;;;5.72;;
64923;SDS011;51436;44.692;39.214;2022-11-20T00:39:18;4.88;;;4.32;;
64923;SDS011;51436;44.692;39.214;2022-11-20T00:41:44;7.05;;;4.05;;
64923;SDS011;51436;44.692;39.214;2022-11-20T00:44:11;8.63;;;4.55;;
64923;SDS011;51436;44.692;39.214;2022-11-20T00:46:37;12.52;;;5.40;;
64923;SDS011;51436;44.692;39.214;2022-11-20T00:49:03;15.55;;;6.82;;
64923;SDS011;51436;44.692;39.214;2022-11-20T00:51:30;22.55;;;6.72;;
64923;SDS011;51436;44.692;39.214;2022-11-20T00:53:59;10.30;;;4.85;;
64923;SDS011;51436;44.692;39.214;2022-11-20T00:56:25;9.18;;;4.60;;
64923;SDS011;51436;44.692;39.214;2022-11-20T00:58:52;11.65;;;4.00;;
64923;SDS011;51436;44.692;39.214;2022-11-20T01:01:20;16.30;;;5.30;;
64923;SDS011;51436;44.692;39.214;2022-11-20T01:03:50;13.65;;;4.93;;
64923;SDS011;51436;44.692;39.214;2022-11-20T01:06:19;8.73;;;3.92;;
64923;SDS011;51436;44.692;39.214;2022-11-20T01:08:50;14.13;;;4.97;;
64923;SDS011;51436;44.692;39.214;2022-11-20T01:11:22;16.52;;;4.47;;
64923;SDS011;51436;44.692;39.214;2022-11-20T01:13:50;15.10;;;5.03;;
64923;SDS011;51436;44.692;39.214;2022-11-20T01:16:22;14.90;;;4.90;;
64923;SDS011;51436;44.692;39.214;2022-11-20T01:18:51;13.60;;;5.28;;
64923;SDS011;51436;44.692;39.214;2022-11-20T01:21:20;14.30;;;5.63;;
64923;SDS011;51436;44.692;39.214;2022-11-20T01:23:57;16.67;;;5.78;;
64923;SDS011;51436;44.692;39.214;2022-11-20T01:26:25;17.05;;;6.47;;
64923;SDS011;51436;44.692;39.214;2022-11-20T01:28:53;10.25;;;6.60;;
64923;SDS011;51436;44.692;39.214;2022-11-20T01:31:21;18.58;;;6.70;;
64923;SDS011;51436;44.692;39.214;2022-11-20T01:41:59;11.82;;;5.00;;
64923;SDS011;51436;44.692;39.214;2022-11-20T01:47:37;13.73;;;6.00;;
64923;SDS011;51436;44.692;39.214;2022-11-20T01:50:12;17.20;;;6.45;;
64923;SDS011;51436;44.692;39.214;2022-11-20T01:52:43;15.88;;;6.47;;
64923;SDS011;51436;44.692;39.214;2022-11-20T01:55:17;20.47;;;7.47;;
64923;SDS011;51436;44.692;39.214;2022-11-20T01:57:47;17.52;;;6.72;;
64923;SDS011;51436;44.692;39.214;2022-11-20T02:00:15;14.90;;;5.90;;
64923;SDS011;51436;44.692;39.214;2022-11-20T02:02:47;20.83;;;6.88;;
64923;SDS011;51436;44.692;39.214;2022-11-20T02:05:35;19.42;;;7.30;;
64923;SDS011;51436;44.692;39.214;2022-11-20T02:08:07;15.93;;;7.63;;
64923;SDS011;51436;44.692;39.214;2022-11-20T02:10:34;19.40;;;7.40;;
64923;SDS011;51436;44.692;39.214;2022-11-20T02:13:00;16.50;;;7.50;;
64923;SDS011;51436;44.692;39.214;2022-11-20T02:15:46;20.63;;;7.85;;
64923;SDS011;51436;44.692;39.214;2022-11-20T02:18:14;15.80;;;7.65;;
64923;SDS011;51436;44.692;39.214;2022-11-20T02:20:45;19.20;;;8.27;;
64923;SDS011;51436;44.692;39.214;2022-11-20T02:23:17;21.38;;;10.10;;
64923;SDS011;51436;44.692;39.214;2022-11-20T02:25:49;19.85;;;9.82;;
64923;SDS011;51436;44.692;39.214;2022-11-20T02:28:16;20.63;;;8.98;;
64923;SDS011;51436;44.692;39.214;2022-11-20T02:30:43;23.15;;;12.07;;
64923;SDS011;51436;44.692;39.214;2022-11-20T02:33:10;23.75;;;8.95;;
64923;SDS011;51436;44.692;39.214;2022-11-20T02:35:38;23.80;;;8.88;;
64923;SDS011;51436;44.692;39.214;2022-11-20T02:38:06;20.23;;;8.52;;
64923;SDS011;51436;44.692;39.214;2022-11-20T02:40:33;21.35;;;8.43;;
64923;SDS011;51436;44.692;39.214;2022-11-20T02:42:59;12.95;;;8.10;;
64923;SDS011;51436;44.692;39.214;2022-11-20T02:45:25;19.70;;;8.02;;
64923;SDS011;51436;44.692;39.214;2022-11-20T02:47:52;13.05;;;7.93;;
64923;SDS011;51436;44.692;39.214;2022-11-20T02:50:19;15.88;;;7.88;;
64923;SDS011;51436;44.692;39.214;2022-11-20T02:52:46;19.08;;;7.65;;
64923;SDS011;51436;44.692;39.214;2022-11-20T02:55:12;17.15;;;6.93;;
64923;SDS011;51436;44.692;39.214;2022-11-20T02:57:39;15.13;;;7.60;;
64923;SDS011;51436;44.692;39.214;2022-11-20T03:00:06;13.15;;;7.10;;
64923;SDS011;51436;44.692;39.214;2022-11-20T03:02:33;14.93;;;7.05;;
64923;SDS011;51436;44.692;39.214;2022-11-20T03:04:59;10.05;;;6.05;;
64923;SDS011;51436;44.692;39.214;2022-11-20T03:07:26;10.93;;;6.63;;
64923;SDS011;51436;44.692;39.214;2022-11-20T03:09:53;15.70;;;6.15;;
64923;SDS011;51436;44.692;39.214;2022-11-20T03:12:19;15.25;;;7.40;;
64923;SDS011;51436;44.692;39.214;2022-11-20T03:14:45;13.23;;;6.90;;
64923;SDS011;51436;44.692;39.214;2022-11-20T03:17:12;9.13;;;5.72;;
64923;SDS011;51436;44.692;39.214;2022-11-20T03:19:38;11.18;;;6.20;;
64923;SDS011;51436;44.692;39.214;2022-11-20T03:22:05;12.98;;;6.63;;
64923;SDS011;51436;44.692;39.214;2022-11-20T03:24:31;12.65;;;6.60;;
64923;SDS011;51436;44.692;39.214;2022-11-20T03:26:57;11.68;;;6.00;;
64923;SDS011;51436;44.692;39.214;2022-11-20T03:29:24;12.25;;;6.55;;
64923;SDS011;51436;44.692;39.214;2022-11-20T03:31:50;13.75;;;6.80;;
64923;SDS011;51436;44.692;39.214;2022-11-20T03:34:16;16.25;;;6.95;;
64923;SDS011;51436;44.692;39.214;2022-11-20T03:36:43;15.98;;;6.43;;
64923;SDS011;51436;44.692;39.214;2022-11-20T03:39:09;13.52;;;7.40;;
64923;SDS011;51436;44.692;39.214;2022-11-20T03:41:37;10.05;;;6.00;;
64923;SDS011;51436;44.692;39.214;2022-11-20T03:44:07;14.68;;;6.63;;
64923;SDS011;51436;44.692;39.214;2022-11-20T03:46:35;15.13;;;6.50;;
64923;SDS011;51436;44.692;39.214;2022-11-20T03:49:02;11.65;;;5.50;;
64923;SDS011;51436;44.692;39.214;2022-11-20T03:51:29;18.70;;;7.22;;
64923;SDS011;51436;44.692;39.214;2022-11-20T03:53:58;16.10;;;8.32;;
64923;SDS011;51436;44.692;39.214;2022-11-20T03:56:28;22.88;;;8.93;;
64923;SDS011;51436;44.692;39.214;2022-11-20T03:58:56;23.02;;;8.65;;
64923;SDS011;51436;44.692;39.214;2022-11-20T04:01:25;15.10;;;7.90;;
64923;SDS011;51436;44.692;39.214;2022-11-20T04:03:54;19.20;;;7.65;;
64923;SDS011;51436;44.692;39.214;2022-11-20T04:06:22;19.13;;;8.30;;
64923;SDS011;51436;44.692;39.214;2022-11-20T04:08:51;19.63;;;8.32;;
64923;SDS011;51436;44.692;39.214;2022-11-20T04:11:24;20.50;;;8.70;;
64923;SDS011;51436;44.692;39.214;2022-11-20T04:14:02;18.58;;;8.70;;
64923;SDS011;51436;44.692;39.214;2022-11-20T04:16:32;14.30;;;7.80;;
64923;SDS011;51436;44.692;39.214;2022-11-20T04:19:02;18.35;;;7.90;;
64923;SDS011;51436;44.692;39.214;2022-11-20T04:21:31;19.48;;;7.95;;
64923;SDS011;51436;44.692;39.214;2022-11-20T04:23:57;20.58;;;7.43;;
64923;SDS011;51436;44.692;39.214;2022-11-20T04:26:24;15.82;;;7.50;;
64923;SDS011;51436;44.692;39.214;2022-11-20T04:28:52;13.95;;;6.63;;
64923;SDS011;51436;44.692;39.214;2022-11-20T04:31:22;14.23;;;6.60;;
64923;SDS011;51436;44.692;39.214;2022-11-20T04:33:51;12.07;;;6.65;;
64923;SDS011;51436;44.692;39.214;2022-11-20T04:36:18;25.30;;;7.80;;
64923;SDS011;51436;44.692;39.214;2022-11-20T04:38:49;15.40;;;7.88;;
64923;SDS011;51436;44.692;39.214;2022-11-20T04:41:18;12.25;;;7.15;;
64923;SDS011;51436;44.692;39.214;2022-11-20T04:43:46;15.90;;;6.68;;
64923;SDS011;51436;44.692;39.214;2022-11-20T04:46:14;19.88;;;6.80;;
64923;SDS011;51436;44.692;39.214;2022-11-20T04:48:42;14.60;;;6.15;;
64923;SDS011;51436;44.692;39.214;2022-11-20T04:51:08;13.15;;;6.13;;
64923;SDS011;51436;44.692;39.214;2022-11-20T04:53:35;17.00;;;6.97;;
64923;SDS011;51436;44.692;39.214;2022-11-20T04:56:02;15.07;;;7.35;;
64923;SDS011;51436;44.692;39.214;2022-11-20T04:58:30;17.20;;;7.80;;
64923;SDS011;51436;44.692;39.214;2022-11-20T05:01:09;16.95;;;6.80;;
64923;SDS011;51436;44.692;39.214;2022-11-20T05:03:39;21.60;;;7.55;;
64923;SDS011;51436;44.692;39.214;2022-11-20T05:06:06;16.50;;;7.28;;
64923;SDS011;51436;44.692;39.214;2022-11-20T05:08:33;11.73;;;6.75;;
64923;SDS011;51436;44.692;39.214;2022-11-20T05:11:07;22.35;;;7.30;;
64923;SDS011;51436;44.692;39.214;2022-11-20T05:13:35;14.55;;;6.47;;
64923;SDS011;51436;44.692;39.214;2022-11-20T05:16:10;17.30;;;7.78;;
64923;SDS011;51436;44.692;39.214;2022-11-20T05:18:38;18.02;;;8.38;;
64923;SDS011;51436;44.692;39.214;2022-11-20T05:21:05;24.15;;;9.75;;
64923;SDS011;51436;44.692;39.214;2022-11-20T05:23:32;23.17;;;9.98;;
64923;SDS011;51436;44.692;39.214;2022-11-20T05:26:00;27.27;;;10.88;;
64923;SDS011;51436;44.692;39.214;2022-11-20T05:28:27;38.45;;;13.77;;
64923;SDS011;51436;44.692;39.214;2022-11-20T05:30:54;29.80;;;14.05;;
64923;SDS011;51436;44.692;39.214;2022-11-20T05:33:21;37.25;;;15.15;;
64923;SDS011;51436;44.692;39.214;2022-11-20T05:35:48;34.85;;;15.73;;
64923;SDS011;51436;44.692;39.214;2022-11-20T05:38:14;32.70;;;15.38;;
64923;SDS011;51436;44.692;39.214;2022-11-20T05:40:41;42.38;;;15.95;;
64923;SDS011;51436;44.692;39.214;2022-11-20T05:43:07;38.70;;;14.65;;
64923;SDS011;51436;44.692;39.214;2022-11-20T05:45:34;31.27;;;14.48;;
64923;SDS011;51436;44.692;39.214;2022-11-20T05:48:00;33.70;;;14.40;;
64923;SDS011;51436;44.692;39.214;2022-11-20T05:50:27;25.90;;;13.60;;
64923;SDS011;51436;44.692;39.214;2022-11-20T05:52:54;27.08;;;12.30;;
64923;SDS011;51436;44.692;39.214;2022-11-20T05:55:20;21.30;;;12.38;;
64923;SDS011;51436;44.692;39.214;2022-11-20T05:57:48;25.98;;;12.70;;
64923;SDS011;51436;44.692;39.214;2022-11-20T06:00:14;30.30;;;13.45;;
64923;SDS011;51436;44.692;39.214;2022-11-20T06:02:41;33.20;;;13.48;;
64923;SDS011;51436;44.692;39.214;2022-11-20T06:05:07;27.80;;;12.38;;
64923;SDS011;51436;44.692;39.214;2022-11-20T06:07:34;29.40;;;12.20;;
64923;SDS011;51436;44.692;39.214;2022-11-20T06:10:00;18.80;;;10.48;;
64923;SDS011;51436;44.692;39.214;2022-11-20T06:12:27;31.85;;;10.07;;
64923;SDS011;51436;44.692;39.214;2022-11-20T06:14:53;30.13;;;11.40;;
64923;SDS011;51436;44.692;39.214;2022-11-20T06:17:20;23.60;;;12.35;;
64923;SDS011;51436;44.692;39.214;2022-11-20T06:19:46;28.20;;;12.38;;
64923;SDS011;51436;44.692;39.214;2022-11-20T06:22:13;28.92;;;11.93;;
64923;SDS011;51436;44.692;39.214;2022-11-20T06:24:39;21.55;;;12.43;;
64923;SDS011;51436;44.692;39.214;2022-11-20T06:27:05;35.75;;;11.73;;
64923;SDS011;51436;44.692;39.214;2022-11-20T06:29:32;24.40;;;11.38;;
64923;SDS011;51436;44.692;39.214;2022-11-20T06:31:58;19.75;;;9.90;;
64923;SDS011;51436;44.692;39.214;2022-11-20T06:34:24;15.02;;;8.50;;
64923;SDS011;51436;44.692;39.214;2022-11-20T06:36:51;18.90;;;7.95;;
64923;SDS011;51436;44.692;39.214;2022-11-20T06:39:17;13.07;;;7.35;;
64923;SDS011;51436;44.692;39.214;2022-11-20T06:41:45;11.65;;;7.63;;
64923;SDS011;51436;44.692;39.214;2022-11-20T06:44:12;13.90;;;7.55;;
64923;SDS011;51436;44.692;39.214;2022-11-20T06:46:38;12.40;;;6.72;;
64923;SDS011;51436;44.692;39.214;2022-11-20T06:49:05;10.93;;;6.32;;
64923;SDS011;51436;44.692;39.214;2022-11-20T06:51:31;15.32;;;6.90;;
64923;SDS011;51436;44.692;39.214;2022-11-20T06:53:58;11.88;;;7.28;;
64923;SDS011;51436;44.692;39.214;2022-11-20T06:56:47;11.40;;;6.97;;
64923;SDS011;51436;44.692;39.214;2022-11-20T06:59:14;10.90;;;6.95;;
64923;SDS011;51436;44.692;39.214;2022-11-20T07:01:40;14.70;;;6.97;;
64923;SDS011;51436;44.692;39.214;2022-11-20T07:04:07;14.68;;;7.30;;
64923;SDS011;51436;44.692;39.214;2022-11-20T07:06:33;11.55;;;6.57;;
64923;SDS011;51436;44.692;39.214;2022-11-20T07:09:02;13.63;;;6.97;;
64923;SDS011;51436;44.692;39.214;2022-11-20T07:11:29;10.05;;;6.28;;
64923;SDS011;51436;44.692;39.214;2022-11-20T07:14:21;10.68;;;6.97;;
64923;SDS011;51436;44.692;39.214;2022-11-20T07:16:47;9.95;;;6.45;;
64923;SDS011;51436;44.692;39.214;2022-11-20T07:19:14;9.63;;;6.65;;
64923;SDS011;51436;44.692;39.214;2022-11-20T07:21:41;11.10;;;6.97;;
64923;SDS011;51436;44.692;39.214;2022-11-20T07:24:30;8.40;;;6.45;;
64923;SDS011;51436;44.692;39.214;2022-11-20T07:26:56;11.13;;;7.35;;
64923;SDS011;51436;44.692;39.214;2022-11-20T07:29:23;16.02;;;7.50;;
64923;SDS011;51436;44.692;39.214;2022-11-20T07:31:49;15.98;;;7.68;;
64923;SDS011;51436;44.692;39.214;2022-11-20T07:34:15;14.70;;;7.93;;
64923;SDS011;51436;44.692;39.214;2022-11-20T07:39:52;11.55;;;7.57;;
64923;SDS011;51436;44.692;39.214;2022-11-20T07:52:38;16.65;;;10.05;;
64923;SDS011;51436;44.692;39.214;2022-11-20T07:55:06;19.17;;;9.75;;
64923;SDS011;51436;44.692;39.214;2022-11-20T07:57:33;21.05;;;11.20;;
64923;SDS011;51436;44.692;39.214;2022-11-20T08:00:03;31.17;;;11.30;;
64923;SDS011;51436;44.692;39.214;2022-11-20T08:02:37;17.20;;;10.52;;
64923;SDS011;51436;44.692;39.214;2022-11-20T08:05:05;15.98;;;9.02;;
64923;SDS011;51436;44.692;39.214;2022-11-20T08:07:50;17.27;;;10.70;;
64923;SDS011;51436;44.692;39.214;2022-11-20T08:10:16;38.60;;;20.95;;
64923;SDS011;51436;44.692;39.214;2022-11-20T08:12:43;38.22;;;22.95;;
64923;SDS011;51436;44.692;39.214;2022-11-20T08:15:29;30.40;;;15.43;;
64923;SDS011;51436;44.692;39.214;2022-11-20T08:18:01;20.50;;;11.13;;
64923;SDS011;51436;44.692;39.214;2022-11-20T08:20:29;21.02;;;10.30;;
64923;SDS011;51436;44.692;39.214;2022-11-20T08:25:50;28.83;;;11.63;;
64923;SDS011;51436;44.692;39.214;2022-11-20T08:28:17;17.05;;;8.45;;
64923;SDS011;51436;44.692;39.214;2022-11-20T08:30:43;15.20;;;9.38;;
64923;SDS011;51436;44.692;39.214;2022-11-20T08:36:33;25.38;;;11.07;;
64923;SDS011;51436;44.692;39.214;2022-11-20T08:39:00;28.70;;;15.80;;
64923;SDS011;51436;44.692;39.214;2022-11-20T08:41:27;23.85;;;12.35;;
64923;SDS011;51436;44.692;39.214;2022-11-20T08:43:59;18.55;;;10.50;;
64923;SDS011;51436;44.692;39.214;2022-11-20T08:46:28;20.58;;;10.40;;
64923;SDS011;51436;44.692;39.214;2022-11-20T08:49:03;17.88;;;9.57;;
64923;SDS011;51436;44.692;39.214;2022-11-20T08:51:48;16.52;;;9.20;;
64923;SDS011;51436;44.692;39.214;2022-11-20T08:54:17;14.50;;;9.15;;
64923;SDS011;51436;44.692;39.214;2022-11-20T08:56:47;18.38;;;9.82;;
64923;SDS011;51436;44.692;39.214;2022-11-20T08:59:13;20.70;;;10.57;;
64923;SDS011;51436;44.692;39.214;2022-11-20T09:01:40;16.88;;;9.88;;
64923;SDS011;51436;44.692;39.214;2022-11-20T09:04:06;15.88;;;9.43;;
64923;SDS011;51436;44.692;39.214;2022-11-20T09:06:33;19.33;;;10.00;;
64923;SDS011;51436;44.692;39.214;2022-11-20T09:08:59;23.10;;;10.77;;
64923;SDS011;51436;44.692;39.214;2022-11-20T09:11:25;19.08;;;9.18;;
64923;SDS011;51436;44.692;39.214;2022-11-20T09:13:52;19.55;;;9.52;;
64923;SDS011;51436;44.692;39.214;2022-11-20T09:16:18;18.65;;;9.88;;
64923;SDS011;51436;44.692;39.214;2022-11-20T09:18:45;25.77;;;11.15;;
64923;SDS011;51436;44.692;39.214;2022-11-20T09:21:12;19.38;;;10.82;;
64923;SDS011;51436;44.692;39.214;2022-11-20T09:23:39;19.05;;;10.48;;
64923;SDS011;51436;44.692;39.214;2022-11-20T09:26:07;21.05;;;10.35;;
64923;SDS011;51436;44.692;39.214;2022-11-20T09:28:37;23.77;;;11.55;;
64923;SDS011;51436;44.692;39.214;2022-11-20T09:31:07;25.73;;;11.20;;
64923;SDS011;51436;44.692;39.214;2022-11-20T09:33:35;23.33;;;12.38;;
64923;SDS011;51436;44.692;39.214;2022-11-20T09:36:02;23.65;;;12.90;;
64923;SDS011;51436;44.692;39.214;2022-11-20T09:38:28;24.00;;;12.30;;
64923;SDS011;51436;44.692;39.214;2022-11-20T09:41:00;26.58;;;13.00;;
64923;SDS011;51436;44.692;39.214;2022-11-20T09:46:28;26.17;;;13.05;;
64923;SDS011;51436;44.692;39.214;2022-11-20T09:54:33;26.52;;;12.80;;
64923;SDS011;51436;44.692;39.214;2022-11-20T09:57:10;24.88;;;12.40;;
64923;SDS011;51436;44.692;39.214;2022-11-20T09:59:41;22.50;;;12.90;;
64923;SDS011;51436;44.692;39.214;2022-11-20T10:05:09;28.02;;;12.48;;
64923;SDS011;51436;44.692;39.214;2022-11-20T10:07:48;23.70;;;12.13;;
64923;SDS011;51436;44.692;39.214;2022-11-20T10:18:53;20.83;;;9.70;;
64923;SDS011;51436;44.692;39.214;2022-11-20T10:24:34;21.67;;;9.75;;
64923;SDS011;51436;44.692;39.214;2022-11-20T10:30:10;16.98;;;8.15;;
64923;SDS011;51436;44.692;39.214;2022-11-20T10:33:21;13.77;;;7.77;;
64923;SDS011;51436;44.692;39.214;2022-11-20T10:36:36;12.75;;;7.68;;
64923;SDS011;51436;44.692;39.214;2022-11-20T10:39:04;16.20;;;7.25;;
64923;SDS011;51436;44.692;39.214;2022-11-20T10:41:41;14.73;;;7.00;;
64923;SDS011;51436;44.692;39.214;2022-11-20T10:44:17;11.48;;;6.38;;
64923;SDS011;51436;44.692;39.214;2022-11-20T10:47:11;16.85;;;6.90;;
64923;SDS011;51436;44.692;39.214;2022-11-20T10:49:48;13.00;;;7.72;;
64923;SDS011;51436;44.692;39.214;2022-11-20T10:52:25;18.67;;;9.88;;
64923;SDS011;51436;44.692;39.214;2022-11-20T10:58:14;20.17;;;9.80;;
64923;SDS011;51436;44.692;39.214;2022-11-20T11:00:47;19.00;;;10.43;;
64923;SDS011;51436;44.692;39.214;2022-11-20T11:03:35;25.45;;;9.32;;
64923;SDS011;51436;44.692;39.214;2022-11-20T11:08:41;20.52;;;8.65;;
64923;SDS011;51436;44.692;39.214;2022-11-20T11:11:23;17.00;;;8.30;;
64923;SDS011;51436;44.692;39.214;2022-11-20T11:13:52;16.40;;;8.00;;
64923;SDS011;51436;44.692;39.214;2022-11-20T11:16:23;20.00;;;7.05;;
64923;SDS011;51436;44.692;39.214;2022-11-20T11:21:30;11.05;;;6.85;;
64923;SDS011;51436;44.692;39.214;2022-11-20T11:23:57;8.13;;;5.45;;
64923;SDS011;51436;44.692;39.214;2022-11-20T11:26:30;13.43;;;6.78;;
64923;SDS011;51436;44.692;39.214;2022-11-20T11:28:57;13.25;;;7.18;;
64923;SDS011;51436;44.692;39.214;2022-11-20T11:31:26;14.98;;;6.72;;
64923;SDS011;51436;44.692;39.214;2022-11-20T11:34:04;22.77;;;6.13;;
64923;SDS011;51436;44.692;39.214;2022-11-20T11:36:34;12.65;;;6.22;;
64923;SDS011;51436;44.692;39.214;2022-11-20T11:39:02;14.85;;;6.30;;
64923;SDS011;51436;44.692;39.214;2022-11-20T11:41:33;11.45;;;5.28;;
64923;SDS011;51436;44.692;39.214;2022-11-20T11:44:14;11.43;;;4.15;;
64923;SDS011;51436;44.692;39.214;2022-11-20T11:47:00;11.27;;;3.60;;
64923;SDS011;51436;44.692;39.214;2022-11-20T11:49:28;9.32;;;3.28;;
64923;SDS011;51436;44.692;39.214;2022-11-20T11:57:12;8.85;;;2.72;;
64923;SDS011;51436;44.692;39.214;2022-11-20T12:05:25;10.52;;;2.13;;
64923;SDS011;51436;44.692;39.214;2022-11-20T12:16:00;4.47;;;2.10;;
64923;SDS011;51436;44.692;39.214;2022-11-20T12:18:28;16.70;;;2.78;;
64923;SDS011;51436;44.692;39.214;2022-11-20T12:21:17;6.63;;;2.30;;
64923;SDS011;51436;44.692;39.214;2022-11-20T12:23:51;4.75;;;1.98;;
64923;SDS011;51436;44.692;39.214;2022-11-20T12:26:42;8.57;;;2.65;;
64923;SDS011;51436;44.692;39.214;2022-11-20T12:29:18;8.68;;;2.40;;
64923;SDS011;51436;44.692;39.214;2022-11-20T12:43:17;6.55;;;2.67;;
64923;SDS011;51436;44.692;39.214;2022-11-20T12:51:16;5.75;;;2.72;;
64923;SDS011;51436;44.692;39.214;2022-11-20T12:53:58;10.55;;;2.60;;
64923;SDS011;51436;44.692;39.214;2022-11-20T12:56:53;6.38;;;2.47;;
64923;SDS011;51436;44.692;39.214;2022-11-20T13:08:24;4.80;;;1.95;;
64923;SDS011;51436;44.692;39.214;2022-11-20T13:13:35;4.15;;;2.40;;
64923;SDS011;51436;44.692;39.214;2022-11-20T13:16:17;9.35;;;2.30;;
64923;SDS011;51436;44.692;39.214;2022-11-20T13:19:08;4.53;;;2.00;;
64923;SDS011;51436;44.692;39.214;2022-11-20T13:21:38;7.25;;;2.22;;
64923;SDS011;51436;44.692;39.214;2022-11-20T13:27:03;9.63;;;2.30;;
64923;SDS011;51436;44.692;39.214;2022-11-20T13:29:36;4.97;;;1.90;;
64923;SDS011;51436;44.692;39.214;2022-11-20T13:37:35;5.80;;;2.92;;
64923;SDS011;51436;44.692;39.214;2022-11-20T13:42:39;6.82;;;4.10;;
64923;SDS011;51436;44.692;39.214;2022-11-20T13:45:25;12.03;;;3.77;;
64923;SDS011;51436;44.692;39.214;2022-11-20T13:47:54;12.10;;;3.28;;
64923;SDS011;51436;44.692;39.214;2022-11-20T13:50:28;10.80;;;2.60;;
64923;SDS011;51436;44.692;39.214;2022-11-20T14:04:20;11.32;;;2.60;;
64923;SDS011;51436;44.692;39.214;2022-11-20T14:06:59;5.82;;;2.65;;
64923;SDS011;51436;44.692;39.214;2022-11-20T14:09:27;6.80;;;2.80;;
64923;SDS011;51436;44.692;39.214;2022-11-20T14:11:55;8.18;;;2.47;;
64923;SDS011;51436;44.692;39.214;2022-11-20T14:14:26;13.70;;;2.67;;
64923;SDS011;51436;44.692;39.214;2022-11-20T14:17:07;11.27;;;2.72;;
64923;SDS011;51436;44.692;39.214;2022-11-20T14:19:54;9.48;;;2.47;;
64923;SDS011;51436;44.692;39.214;2022-11-20T14:22:32;8.95;;;2.40;;
64923;SDS011;51436;44.692;39.214;2022-11-20T14:27:45;8.10;;;2.47;;
64923;SDS011;51436;44.692;39.214;2022-11-20T14:30:20;8.85;;;2.53;;
64923;SDS011;51436;44.692;39.214;2022-11-20T14:32:49;12.90;;;3.05;;
64923;SDS011;51436;44.692;39.214;2022-11-20T14:35:21;5.28;;;2.17;;
64923;SDS011;51436;44.692;39.214;2022-11-20T14:37:49;8.38;;;2.97;;
64923;SDS011;51436;44.692;39.214;2022-11-20T14:43:01;11.52;;;4.80;;
64923;SDS011;51436;44.692;39.214;2022-11-20T14:45:41;11.98;;;5.03;;
64923;SDS011;51436;44.692;39.214;2022-11-20T14:48:09;18.13;;;5.18;;
64923;SDS011;51436;44.692;39.214;2022-11-20T14:50:37;14.20;;;5.07;;
64923;SDS011;51436;44.692;39.214;2022-11-20T14:53:05;18.77;;;4.63;;
64923;SDS011;51436;44.692;39.214;2022-11-20T14:55:35;12.45;;;4.00;;
64923;SDS011;51436;44.692;39.214;2022-11-20T14:58:04;10.07;;;4.40;;
64923;SDS011;51436;44.692;39.214;2022-11-20T15:00:54;9.45;;;3.88;;
64923;SDS011;51436;44.692;39.214;2022-11-20T15:03:47;6.47;;;3.38;;
64923;SDS011;51436;44.692;39.214;2022-11-20T15:06:26;13.23;;;5.50;;
64923;SDS011;51436;44.692;39.214;2022-11-20T15:08:53;12.43;;;6.05;;
64923;SDS011;51436;44.692;39.214;2022-11-20T15:11:30;24.30;;;7.03;;
64923;SDS011;51436;44.692;39.214;2022-11-20T15:13:58;15.57;;;7.65;;
64923;SDS011;51436;44.692;39.214;2022-11-20T15:16:48;9.80;;;4.97;;
64923;SDS011;51436;44.692;39.214;2022-11-20T15:19:18;8.90;;;3.13;;
64923;SDS011;51436;44.692;39.214;2022-11-20T15:21:47;13.23;;;5.55;;
64923;SDS011;51436;44.692;39.214;2022-11-20T15:24:14;35.72;;;14.05;;
64923;SDS011;51436;44.692;39.214;2022-11-20T15:26:41;46.85;;;20.63;;
64923;SDS011;51436;44.692;39.214;2022-11-20T15:29:08;51.60;;;23.83;;
64923;SDS011;51436;44.692;39.214;2022-11-20T15:31:37;111.13;;;58.38;;
64923;SDS011;51436;44.692;39.214;2022-11-20T15:34:16;42.95;;;21.08;;
64923;SDS011;51436;44.692;39.214;2022-11-20T15:36:42;11.02;;;4.00;;
64923;SDS011;51436;44.692;39.214;2022-11-20T15:39:09;10.40;;;3.50;;
64923;SDS011;51436;44.692;39.214;2022-11-20T15:41:37;14.32;;;6.65;;
64923;SDS011;51436;44.692;39.214;2022-11-20T15:44:03;11.00;;;4.97;;
64923;SDS011;51436;44.692;39.214;2022-11-20T15:46:33;4.75;;;2.90;;
64923;SDS011;51436;44.692;39.214;2022-11-20T15:49:04;8.25;;;2.92;;
64923;SDS011;51436;44.692;39.214;2022-11-20T15:54:21;15.73;;;5.15;;
64923;SDS011;51436;44.692;39.214;2022-11-20T15:56:49;24.95;;;12.07;;
64923;SDS011;51436;44.692;39.214;2022-11-20T15:59:18;31.95;;;14.15;;
64923;SDS011;51436;44.692;39.214;2022-11-20T16:01:44;66.20;;;28.33;;
64923;SDS011;51436;44.692;39.214;2022-11-20T16:04:11;34.72;;;16.23;;
64923;SDS011;51436;44.692;39.214;2022-11-20T16:06:39;65.07;;;25.80;;
64923;SDS011;51436;44.692;39.214;2022-11-20T16:09:06;45.60;;;19.42;;
64923;SDS011;51436;44.692;39.214;2022-11-20T16:11:41;30.15;;;14.45;;
64923;SDS011;51436;44.692;39.214;2022-11-20T16:14:09;28.05;;;13.57;;
64923;SDS011;51436;44.692;39.214;2022-11-20T16:16:55;33.50;;;11.82;;
64923;SDS011;51436;44.692;39.214;2022-11-20T16:19:21;46.17;;;18.95;;
64923;SDS011;51436;44.692;39.214;2022-11-20T16:21:48;50.97;;;20.73;;
64923;SDS011;51436;44.692;39.214;2022-11-20T16:24:15;33.92;;;14.40;;
64923;SDS011;51436;44.692;39.214;2022-11-20T16:26:41;26.88;;;12.40;;
64923;SDS011;51436;44.692;39.214;2022-11-20T16:29:08;24.98;;;11.38;;
64923;SDS011;51436;44.692;39.214;2022-11-20T16:31:35;33.05;;;10.68;;
64923;SDS011;51436;44.692;39.214;2022-11-20T16:34:03;19.40;;;9.73;;
64923;SDS011;51436;44.692;39.214;2022-11-20T16:36:32;33.65;;;10.32;;
64923;SDS011;51436;44.692;39.214;2022-11-20T16:39:00;40.15;;;11.02;;
64923;SDS011;51436;44.692;39.214;2022-11-20T16:41:30;25.63;;;9.18;;
64923;SDS011;51436;44.692;39.214;2022-11-20T16:43:58;18.85;;;6.90;;
64923;SDS011;51436;44.692;39.214;2022-11-20T16:46:28;27.55;;;8.88;;
64923;SDS011;51436;44.692;39.214;2022-11-20T16:48:57;13.40;;;6.38;;
64923;SDS011;51436;44.692;39.214;2022-11-20T16:51:25;16.08;;;5.07;;
64923;SDS011;51436;44.692;39.214;2022-11-20T16:56:42;15.93;;;5.35;;
64923;SDS011;51436;44.692;39.214;2022-11-20T16:59:08;10.25;;;5.00;;
64923;SDS011;51436;44.692;39.214;2022-11-20T17:01:35;43.55;;;18.90;;
64923;SDS011;51436;44.692;39.214;2022-11-20T17:04:31;30.30;;;12.65;;